Pagina principale
METAR-TAF:

METAR-TAF

Aeroporti :

Aeroporto di Tolone-Hyères

Tolone, Francia

latitudine: 43-06N, longitudine: 006-09E, altezza: 3 m

Osservazione

Il bollettino è stato emesso 28 minuti fa, alle 12:30 UTC
Vento 11 kt da sud-ovest
Temperature 34°C
Umidità 39%
Pressione 1019 hPa
Visibilità 10 km o più
nessuna nube inferiore a 1500 m e nessun cumulonembo

METAR: LFTH 271230Z AUTO 22011KT CAVOK 34/18 Q1019 NOSIG

Ora: 14:58 (12:58 UTC)

Previsione

Il bollettino è stato emesso 4 ore e 58 minuti fa, alle 08:00 UTC
Previsione valida dal 27 alle 09 UTC al 28 alle 09 UTC
Vento 3 kt da sud
Visibilità 10 km o più
nessuna nube inferiore a 1500 m e nessun cumulonembo
Evoluzione graduale
dal 27 alle 12 UTC al 27 alle 15 UTC
Vento 10 kt da ovest/sud-ovest con raffiche fino a 20 kt
Evoluzione graduale
dal 27 alle 18 UTC al 27 alle 22 UTC
Vento 5 kt da ovest/sud-ovest

TAF: LFTH 270800Z 2709/2809 18003KT CAVOK BECMG 2712/2715 24010G20KT BECMG 2718/2722 24005KT

Osservazioni e previsioni meteorologiche di più di 4000 aeroporti (messaggi METAR e TAF).

Le stazioni disponibili sono rappresentate dai dischi gialli e rossi sulla carta.

Puntare il mouse per vedere il nome della stazione.

Clicca sopra per visualizzare le osservazioni e previsioni meteorologiche.

Per cambiare la mappa : fare clic sui pulsanti verdi con una croce nera per ingrandire, il pulsante verde con un trattino per diminuire, o sulla freccia verde per le mappe adiacenti.


METAR-TAF: